WZZ67 LQBK-EDDS
Flight info
| Callsign | WZZ67 |
|---|---|
| Flight time | 1h 11m |
| Altitude | 36000 |
| Route | TEBLI DCT BERTA DCT RASTA DCT TITIG L173 MAH/N0366F240 L173 DODIL T127 TEKSI TEKSI1W |
| Aircraft | A320/M-SDE3FGHIRWY/LB1 |
Departure
| Time | 2026-05-05 18:56 |
|---|---|
| Airport | Banja Luka International Airport (LQBK) |
Arrival
| Time | 2026-05-05 20:08 |
|---|---|
| Airport | Stuttgart Airport (EDDS) |
| Time | Latitude | Longitude | Altitude | Speed | Heading |
|---|---|---|---|---|---|
| 2026-05-05 18:31 | 44.93245 | 17.30282 | 401 ft | 0 kts | 257° |
| 2026-05-05 18:50 | 44.93259 | 17.30257 | 399 ft | 7 kts | 320° |
| 2026-05-05 18:51 | 44.93311 | 17.30222 | 398 ft | 10 kts | 337° |
| 2026-05-05 18:51 | 44.93385 | 17.30195 | 396 ft | 12 kts | 350° |
| 2026-05-05 18:51 | 44.93478 | 17.30170 | 395 ft | 15 kts | 348° |
| 2026-05-05 18:51 | 44.93546 | 17.30079 | 395 ft | 0 kts | 305° |
| 2026-05-05 18:52 | 44.93567 | 17.30037 | 396 ft | 16 kts | 305° |
| 2026-05-05 18:52 | 44.93649 | 17.29886 | 393 ft | 20 kts | 326° |
| 2026-05-05 18:53 | 44.93791 | 17.29840 | 393 ft | 22 kts | 350° |
| 2026-05-05 18:53 | 44.93955 | 17.29799 | 391 ft | 25 kts | 350° |
| 2026-05-05 18:53 | 44.94132 | 17.29751 | 391 ft | 27 kts | 348° |
| 2026-05-05 18:53 | 44.94318 | 17.29696 | 390 ft | 27 kts | 342° |
| 2026-05-05 18:54 | 44.94515 | 17.29655 | 386 ft | 29 kts | 350° |
| 2026-05-05 18:54 | 44.94722 | 17.29601 | 383 ft | 32 kts | 349° |
| 2026-05-05 18:54 | 44.94951 | 17.29544 | 382 ft | 34 kts | 350° |
| 2026-05-05 18:54 | 44.95148 | 17.29493 | 380 ft | 24 kts | 349° |
| 2026-05-05 18:55 | 44.95236 | 17.29485 | 378 ft | 2 kts | 331° |
| 2026-05-05 18:55 | 44.95226 | 17.29470 | 379 ft | 4 kts | 218° |
| 2026-05-05 18:55 | 44.95201 | 17.29477 | 379 ft | 4 kts | 159° |
| 2026-05-05 18:55 | 44.95088 | 17.29506 | 380 ft | 46 kts | 169° |
| 2026-05-05 18:56 | 44.94551 | 17.29643 | 387 ft | 107 kts | 170° |
| 2026-05-05 18:56 | 44.93663 | 17.29858 | 453 ft | 145 kts | 170° |
| 2026-05-05 18:56 | 44.92747 | 17.30191 | 1174 ft | 136 kts | 166° |
| 2026-05-05 18:56 | 44.91796 | 17.30545 | 1638 ft | 147 kts | 175° |
| 2026-05-05 18:57 | 44.90720 | 17.30795 | 1931 ft | 168 kts | 175° |
| 2026-05-05 18:57 | 44.89483 | 17.31068 | 2233 ft | 191 kts | 175° |
| 2026-05-05 18:57 | 44.88088 | 17.31385 | 2519 ft | 215 kts | 175° |
| 2026-05-05 18:57 | 44.86558 | 17.31749 | 3199 ft | 226 kts | 175° |
| 2026-05-05 18:58 | 44.84995 | 17.32141 | 4011 ft | 232 kts | 175° |
| 2026-05-05 18:58 | 44.83390 | 17.32143 | 4776 ft | 232 kts | 203° |
| 2026-05-05 18:58 | 44.82140 | 17.30797 | 5530 ft | 231 kts | 240° |
| 2026-05-05 18:58 | 44.81783 | 17.28600 | 6265 ft | 239 kts | 278° |
| 2026-05-05 18:59 | 44.82425 | 17.26470 | 7040 ft | 244 kts | 302° |
| 2026-05-05 18:59 | 44.83466 | 17.24559 | 7878 ft | 248 kts | 308° |
| 2026-05-05 18:59 | 44.84608 | 17.22700 | 8718 ft | 252 kts | 309° |
| 2026-05-05 18:59 | 44.85760 | 17.20809 | 9543 ft | 256 kts | 308° |
| 2026-05-05 19:00 | 44.86898 | 17.18851 | 10295 ft | 260 kts | 307° |
| 2026-05-05 19:00 | 44.88021 | 17.16825 | 11030 ft | 264 kts | 306° |
| 2026-05-05 19:00 | 44.89131 | 17.14747 | 11777 ft | 267 kts | 304° |
| 2026-05-05 19:00 | 44.90238 | 17.12628 | 12532 ft | 270 kts | 304° |
| 2026-05-05 19:01 | 44.91350 | 17.10474 | 13269 ft | 273 kts | 303° |
| 2026-05-05 19:01 | 44.92469 | 17.08292 | 13985 ft | 276 kts | 303° |
| 2026-05-05 19:01 | 44.93602 | 17.06079 | 14636 ft | 279 kts | 303° |
| 2026-05-05 19:01 | 44.94756 | 17.03853 | 15269 ft | 283 kts | 307° |
| 2026-05-05 19:02 | 44.96140 | 17.01775 | 15606 ft | 301 kts | 311° |
| 2026-05-05 19:02 | 44.97670 | 16.99594 | 15730 ft | 323 kts | 312° |
| 2026-05-05 19:02 | 44.99310 | 16.97271 | 15863 ft | 343 kts | 312° |
| 2026-05-05 19:02 | 45.01025 | 16.94853 | 16249 ft | 353 kts | 313° |
| 2026-05-05 19:03 | 45.02774 | 16.92387 | 16812 ft | 357 kts | 313° |
| 2026-05-05 19:03 | 45.04535 | 16.89894 | 17405 ft | 361 kts | 312° |
| 2026-05-05 19:03 | 45.06315 | 16.87366 | 18007 ft | 364 kts | 312° |
| 2026-05-05 19:03 | 45.08112 | 16.84811 | 18560 ft | 368 kts | 312° |
| 2026-05-05 19:04 | 45.09897 | 16.82267 | 19094 ft | 370 kts | 312° |
| 2026-05-05 19:04 | 45.11742 | 16.79637 | 19659 ft | 373 kts | 312° |
| 2026-05-05 19:04 | 45.13577 | 16.77020 | 20202 ft | 376 kts | 313° |
| 2026-05-05 19:04 | 45.15400 | 16.74411 | 20726 ft | 379 kts | 312° |
| 2026-05-05 19:05 | 45.17258 | 16.71748 | 21293 ft | 380 kts | 312° |
| 2026-05-05 19:05 | 45.19121 | 16.69080 | 21813 ft | 382 kts | 313° |
| 2026-05-05 19:05 | 45.20981 | 16.66380 | 22313 ft | 384 kts | 311° |
| 2026-05-05 19:05 | 45.22796 | 16.63595 | 22813 ft | 386 kts | 310° |
| 2026-05-05 19:06 | 45.24586 | 16.60740 | 23313 ft | 389 kts | 309° |
| 2026-05-05 19:06 | 45.26375 | 16.57840 | 23761 ft | 391 kts | 309° |
| 2026-05-05 19:06 | 45.28170 | 16.54924 | 24174 ft | 393 kts | 309° |
| 2026-05-05 19:06 | 45.29982 | 16.51995 | 24601 ft | 395 kts | 309° |
| 2026-05-05 19:07 | 45.31805 | 16.49067 | 25024 ft | 397 kts | 309° |
| 2026-05-05 19:07 | 45.33646 | 16.46127 | 25451 ft | 398 kts | 309° |
| 2026-05-05 19:07 | 45.35490 | 16.43190 | 25908 ft | 399 kts | 309° |
| 2026-05-05 19:07 | 45.37344 | 16.40236 | 26340 ft | 401 kts | 309° |
| 2026-05-05 19:08 | 45.39203 | 16.37265 | 26736 ft | 403 kts | 309° |
| 2026-05-05 19:08 | 45.41071 | 16.34274 | 27100 ft | 406 kts | 309° |
| 2026-05-05 19:08 | 45.42953 | 16.31259 | 27476 ft | 408 kts | 309° |
| 2026-05-05 19:08 | 45.44820 | 16.28264 | 27857 ft | 410 kts | 309° |
| 2026-05-05 19:09 | 45.46720 | 16.25215 | 28239 ft | 412 kts | 309° |
| 2026-05-05 19:09 | 45.48625 | 16.22153 | 28623 ft | 414 kts | 309° |
| 2026-05-05 19:09 | 45.50539 | 16.19069 | 29011 ft | 416 kts | 308° |
| 2026-05-05 19:09 | 45.52460 | 16.15967 | 29412 ft | 418 kts | 308° |
| 2026-05-05 19:10 | 45.54397 | 16.12837 | 29780 ft | 421 kts | 308° |
| 2026-05-05 19:10 | 45.56339 | 16.09701 | 30135 ft | 423 kts | 308° |
| 2026-05-05 19:10 | 45.58295 | 16.06541 | 30444 ft | 425 kts | 308° |
| 2026-05-05 19:10 | 45.60260 | 16.03362 | 30753 ft | 427 kts | 308° |
| 2026-05-05 19:11 | 45.62228 | 16.00169 | 31059 ft | 429 kts | 308° |
| 2026-05-05 19:11 | 45.64202 | 15.96963 | 31477 ft | 428 kts | 308° |
| 2026-05-05 19:11 | 45.66167 | 15.93768 | 31935 ft | 427 kts | 308° |
| 2026-05-05 19:11 | 45.68126 | 15.90578 | 32385 ft | 426 kts | 308° |
| 2026-05-05 19:12 | 45.70077 | 15.87400 | 32825 ft | 425 kts | 308° |
| 2026-05-05 19:12 | 45.71998 | 15.84266 | 33271 ft | 424 kts | 308° |
| 2026-05-05 19:12 | 45.73937 | 15.81099 | 33736 ft | 422 kts | 308° |
| 2026-05-05 19:12 | 45.75872 | 15.77939 | 34164 ft | 421 kts | 308° |
| 2026-05-05 19:13 | 45.77801 | 15.74786 | 34522 ft | 421 kts | 308° |
| 2026-05-05 19:13 | 45.79725 | 15.71637 | 34867 ft | 420 kts | 308° |
| 2026-05-05 19:13 | 45.81646 | 15.68483 | 35195 ft | 420 kts | 308° |
| 2026-05-05 19:13 | 45.83570 | 15.65319 | 35528 ft | 419 kts | 308° |
| 2026-05-05 19:14 | 45.85495 | 15.62150 | 35832 ft | 419 kts | 308° |
| 2026-05-05 19:14 | 45.87405 | 15.59009 | 35955 ft | 420 kts | 308° |
| 2026-05-05 19:14 | 45.91240 | 15.52704 | 35979 ft | 419 kts | 308° |
| 2026-05-05 19:15 | 45.95060 | 15.46388 | 35975 ft | 419 kts | 308° |
| 2026-05-05 19:15 | 45.98872 | 15.40057 | 35976 ft | 419 kts | 308° |
| 2026-05-05 19:16 | 46.02656 | 15.33765 | 35975 ft | 419 kts | 308° |
| 2026-05-05 19:16 | 46.06466 | 15.27436 | 35976 ft | 419 kts | 308° |
| 2026-05-05 19:17 | 46.10278 | 15.21095 | 35979 ft | 419 kts | 307° |
| 2026-05-05 19:17 | 46.14134 | 15.14643 | 35965 ft | 420 kts | 307° |
| 2026-05-05 19:18 | 46.17904 | 15.08329 | 35980 ft | 421 kts | 308° |
| 2026-05-05 19:18 | 46.21719 | 15.01917 | 35979 ft | 421 kts | 307° |
| 2026-05-05 19:19 | 46.25531 | 14.95503 | 35977 ft | 421 kts | 308° |
| 2026-05-05 19:19 | 46.29347 | 14.89073 | 35994 ft | 421 kts | 307° |
| 2026-05-05 19:20 | 46.33149 | 14.82639 | 36008 ft | 420 kts | 306° |
| 2026-05-05 19:20 | 46.36936 | 14.76206 | 35994 ft | 420 kts | 307° |
| 2026-05-05 19:21 | 46.40732 | 14.69755 | 35985 ft | 420 kts | 307° |
| 2026-05-05 19:21 | 46.44553 | 14.63323 | 35975 ft | 422 kts | 311° |
| 2026-05-05 19:22 | 46.49061 | 14.57785 | 35966 ft | 426 kts | 317° |
| 2026-05-05 19:22 | 46.52914 | 14.53315 | 35957 ft | 427 kts | 317° |
| 2026-05-05 19:23 | 46.58336 | 14.47007 | 35950 ft | 427 kts | 317° |
| 2026-05-05 19:23 | 46.62947 | 14.41620 | 35950 ft | 428 kts | 317° |
| 2026-05-05 19:24 | 46.67589 | 14.36188 | 35951 ft | 428 kts | 317° |
| 2026-05-05 19:24 | 46.72235 | 14.30741 | 35970 ft | 429 kts | 317° |
| 2026-05-05 19:25 | 46.76876 | 14.25277 | 35957 ft | 429 kts | 317° |
| 2026-05-05 19:25 | 46.81522 | 14.19790 | 35952 ft | 430 kts | 317° |
| 2026-05-05 19:26 | 46.86169 | 14.14300 | 35947 ft | 430 kts | 317° |
| 2026-05-05 19:26 | 46.90795 | 14.08825 | 35948 ft | 430 kts | 317° |
| 2026-05-05 19:27 | 46.95439 | 14.03314 | 35957 ft | 430 kts | 317° |
| 2026-05-05 19:27 | 47.00080 | 13.97795 | 35944 ft | 430 kts | 317° |
| 2026-05-05 19:28 | 47.04723 | 13.92253 | 35927 ft | 431 kts | 317° |
| 2026-05-05 19:28 | 47.09373 | 13.86704 | 35928 ft | 431 kts | 317° |
| 2026-05-05 19:29 | 47.14024 | 13.81134 | 35915 ft | 431 kts | 317° |
| 2026-05-05 19:29 | 47.18642 | 13.75581 | 35919 ft | 432 kts | 317° |
| 2026-05-05 19:30 | 47.23294 | 13.69972 | 35912 ft | 432 kts | 316° |
| 2026-05-05 19:30 | 47.27955 | 13.64361 | 35905 ft | 433 kts | 316° |
| 2026-05-05 19:31 | 47.31853 | 13.59654 | 35898 ft | 432 kts | 316° |
| 2026-05-05 19:31 | 47.36473 | 13.54058 | 35873 ft | 432 kts | 316° |
| 2026-05-05 19:32 | 47.41119 | 13.48412 | 35876 ft | 433 kts | 316° |
| 2026-05-05 19:32 | 47.45773 | 13.42746 | 35882 ft | 434 kts | 316° |
| 2026-05-05 19:33 | 47.50409 | 13.37027 | 35865 ft | 433 kts | 314° |
| 2026-05-05 19:33 | 47.54783 | 13.30926 | 35853 ft | 431 kts | 311° |
| 2026-05-05 19:34 | 47.59010 | 13.24618 | 35851 ft | 432 kts | 310° |
| 2026-05-05 19:35 | 47.65416 | 13.15198 | 35847 ft | 433 kts | 311° |
| 2026-05-05 19:35 | 47.69738 | 13.08961 | 35868 ft | 433 kts | 311° |
| 2026-05-05 19:36 | 47.74063 | 13.02707 | 35847 ft | 434 kts | 310° |
| 2026-05-05 19:36 | 47.78385 | 12.96418 | 35842 ft | 435 kts | 310° |
| 2026-05-05 19:37 | 47.82702 | 12.90098 | 35847 ft | 436 kts | 310° |
| 2026-05-05 19:37 | 47.86950 | 12.83681 | 35847 ft | 431 kts | 302° |
| 2026-05-05 19:38 | 47.90076 | 12.76233 | 35874 ft | 426 kts | 295° |
| 2026-05-05 19:38 | 47.93095 | 12.68615 | 35863 ft | 427 kts | 295° |
| 2026-05-05 19:39 | 47.96095 | 12.60958 | 35855 ft | 427 kts | 295° |
| 2026-05-05 19:39 | 47.99104 | 12.53295 | 35848 ft | 428 kts | 295° |
| 2026-05-05 19:40 | 48.02114 | 12.45619 | 35855 ft | 428 kts | 295° |
| 2026-05-05 19:40 | 48.05127 | 12.37936 | 35849 ft | 429 kts | 295° |
| 2026-05-05 19:41 | 48.08130 | 12.30242 | 35856 ft | 429 kts | 295° |
| 2026-05-05 19:41 | 48.11113 | 12.22562 | 35863 ft | 429 kts | 295° |
| 2026-05-05 19:41 | 48.12612 | 12.18696 | 35740 ft | 429 kts | 295° |
| 2026-05-05 19:42 | 48.14104 | 12.14843 | 35482 ft | 427 kts | 295° |
| 2026-05-05 19:42 | 48.15586 | 12.11017 | 35237 ft | 425 kts | 294° |
| 2026-05-05 19:42 | 48.17064 | 12.07193 | 34989 ft | 422 kts | 294° |
| 2026-05-05 19:42 | 48.18528 | 12.03399 | 34779 ft | 419 kts | 294° |
| 2026-05-05 19:43 | 48.19982 | 11.99634 | 34331 ft | 417 kts | 293° |
| 2026-05-05 19:43 | 48.21426 | 11.95883 | 33879 ft | 415 kts | 293° |
| 2026-05-05 19:43 | 48.22861 | 11.92145 | 33372 ft | 412 kts | 293° |
| 2026-05-05 19:43 | 48.24284 | 11.88435 | 32927 ft | 408 kts | 293° |
| 2026-05-05 19:44 | 48.25691 | 11.84756 | 32480 ft | 405 kts | 293° |
| 2026-05-05 19:44 | 48.27084 | 11.81105 | 32032 ft | 402 kts | 293° |
| 2026-05-05 19:44 | 48.28464 | 11.77483 | 31586 ft | 399 kts | 293° |
| 2026-05-05 19:44 | 48.29838 | 11.73879 | 31159 ft | 396 kts | 293° |
| 2026-05-05 19:45 | 48.31200 | 11.70300 | 30738 ft | 393 kts | 293° |
| 2026-05-05 19:45 | 48.32551 | 11.66746 | 30329 ft | 390 kts | 293° |
| 2026-05-05 19:45 | 48.33894 | 11.63210 | 29904 ft | 389 kts | 293° |
| 2026-05-05 19:45 | 48.35232 | 11.59687 | 29458 ft | 387 kts | 293° |
| 2026-05-05 19:46 | 48.36561 | 11.56189 | 29072 ft | 383 kts | 293° |
| 2026-05-05 19:46 | 48.37873 | 11.52729 | 28682 ft | 379 kts | 293° |
| 2026-05-05 19:46 | 48.39176 | 11.49280 | 28305 ft | 376 kts | 293° |
| 2026-05-05 19:46 | 48.40440 | 11.45922 | 27934 ft | 373 kts | 293° |
| 2026-05-05 19:47 | 48.41711 | 11.42542 | 27562 ft | 369 kts | 293° |
| 2026-05-05 19:47 | 48.42971 | 11.39192 | 27189 ft | 366 kts | 294° |
| 2026-05-05 19:47 | 48.44221 | 11.35868 | 26814 ft | 363 kts | 294° |
| 2026-05-05 19:47 | 48.45461 | 11.32571 | 26442 ft | 361 kts | 294° |
| 2026-05-05 19:48 | 48.46695 | 11.29283 | 26054 ft | 358 kts | 294° |
| 2026-05-05 19:48 | 48.47912 | 11.26025 | 25681 ft | 356 kts | 294° |
| 2026-05-05 19:48 | 48.49122 | 11.22781 | 25291 ft | 354 kts | 294° |
| 2026-05-05 19:48 | 48.50327 | 11.19554 | 24900 ft | 352 kts | 295° |
| 2026-05-05 19:49 | 48.51527 | 11.16335 | 24493 ft | 351 kts | 295° |
| 2026-05-05 19:49 | 48.52319 | 11.14211 | 24218 ft | 350 kts | 295° |
| 2026-05-05 19:49 | 48.53916 | 11.09931 | 23680 ft | 349 kts | 295° |
| 2026-05-05 19:49 | 48.55108 | 11.06733 | 23255 ft | 349 kts | 295° |
| 2026-05-05 19:50 | 48.56293 | 11.03545 | 22814 ft | 347 kts | 296° |
| 2026-05-05 19:50 | 48.57466 | 11.00381 | 22414 ft | 344 kts | 296° |
| 2026-05-05 19:50 | 48.58635 | 10.97226 | 22009 ft | 342 kts | 296° |
| 2026-05-05 19:50 | 48.59793 | 10.94093 | 21608 ft | 340 kts | 296° |
| 2026-05-05 19:51 | 48.60941 | 10.90981 | 21206 ft | 338 kts | 296° |
| 2026-05-05 19:51 | 48.62081 | 10.87886 | 20813 ft | 336 kts | 296° |
| 2026-05-05 19:51 | 48.63201 | 10.84837 | 20417 ft | 335 kts | 296° |
| 2026-05-05 19:51 | 48.64333 | 10.81764 | 20024 ft | 334 kts | 296° |
| 2026-05-05 19:52 | 48.65460 | 10.78703 | 19635 ft | 333 kts | 296° |
| 2026-05-05 19:52 | 48.66583 | 10.75645 | 19230 ft | 332 kts | 296° |
| 2026-05-05 19:52 | 48.67698 | 10.72602 | 18829 ft | 331 kts | 296° |
| 2026-05-05 19:52 | 48.68813 | 10.69559 | 18439 ft | 330 kts | 296° |
| 2026-05-05 19:53 | 48.69924 | 10.66514 | 18042 ft | 330 kts | 296° |
| 2026-05-05 19:53 | 48.71029 | 10.63484 | 17619 ft | 328 kts | 296° |
| 2026-05-05 19:53 | 48.72104 | 10.60451 | 17218 ft | 325 kts | 291° |
| 2026-05-05 19:53 | 48.72786 | 10.57240 | 16830 ft | 318 kts | 278° |
| 2026-05-05 19:54 | 48.72952 | 10.53931 | 16457 ft | 313 kts | 265° |
| 2026-05-05 19:54 | 48.72718 | 10.50675 | 16067 ft | 310 kts | 261° |
| 2026-05-05 19:54 | 48.72450 | 10.47448 | 15693 ft | 308 kts | 261° |
| 2026-05-05 19:54 | 48.72187 | 10.44239 | 15317 ft | 306 kts | 261° |
| 2026-05-05 19:55 | 48.71925 | 10.41044 | 14936 ft | 305 kts | 261° |
| 2026-05-05 19:55 | 48.71663 | 10.37868 | 14572 ft | 303 kts | 261° |
| 2026-05-05 19:55 | 48.71403 | 10.34709 | 14195 ft | 301 kts | 261° |
| 2026-05-05 19:55 | 48.71144 | 10.31565 | 13827 ft | 300 kts | 261° |
| 2026-05-05 19:56 | 48.70884 | 10.28434 | 13425 ft | 299 kts | 261° |
| 2026-05-05 19:56 | 48.70625 | 10.25331 | 13045 ft | 296 kts | 261° |
| 2026-05-05 19:56 | 48.70368 | 10.22250 | 12679 ft | 293 kts | 261° |
| 2026-05-05 19:56 | 48.70111 | 10.19196 | 12308 ft | 291 kts | 260° |
| 2026-05-05 19:57 | 48.69855 | 10.16166 | 11951 ft | 290 kts | 260° |
| 2026-05-05 19:57 | 48.69686 | 10.14169 | 11708 ft | 288 kts | 260° |
| 2026-05-05 19:57 | 48.69349 | 10.10200 | 11201 ft | 286 kts | 260° |
| 2026-05-05 19:57 | 48.69147 | 10.07210 | 10831 ft | 287 kts | 266° |
| 2026-05-05 19:58 | 48.69369 | 10.04210 | 10460 ft | 289 kts | 277° |
| 2026-05-05 19:58 | 48.69737 | 10.01227 | 10072 ft | 287 kts | 277° |
| 2026-05-05 19:58 | 48.70097 | 9.98257 | 9724 ft | 285 kts | 277° |
| 2026-05-05 19:58 | 48.70445 | 9.95360 | 9586 ft | 275 kts | 277° |
| 2026-05-05 19:59 | 48.70784 | 9.92542 | 9326 ft | 270 kts | 277° |
| 2026-05-05 19:59 | 48.71118 | 9.89752 | 8990 ft | 268 kts | 276° |
| 2026-05-05 19:59 | 48.71449 | 9.86977 | 8652 ft | 267 kts | 277° |
| 2026-05-05 19:59 | 48.71777 | 9.84214 | 8348 ft | 265 kts | 276° |
| 2026-05-05 20:00 | 48.72095 | 9.81516 | 8039 ft | 264 kts | 277° |
| 2026-05-05 20:00 | 48.72417 | 9.78773 | 7706 ft | 264 kts | 277° |
| 2026-05-05 20:00 | 48.72736 | 9.76047 | 7438 ft | 262 kts | 277° |
| 2026-05-05 20:00 | 48.73055 | 9.73343 | 7124 ft | 262 kts | 277° |
| 2026-05-05 20:01 | 48.73372 | 9.70627 | 6696 ft | 259 kts | 277° |
| 2026-05-05 20:01 | 48.73681 | 9.67975 | 6281 ft | 252 kts | 277° |
| 2026-05-05 20:01 | 48.73984 | 9.65386 | 5854 ft | 245 kts | 277° |
| 2026-05-05 20:01 | 48.74276 | 9.62894 | 5603 ft | 239 kts | 277° |
| 2026-05-05 20:02 | 48.74558 | 9.60466 | 5354 ft | 229 kts | 277° |
| 2026-05-05 20:02 | 48.74828 | 9.58146 | 5101 ft | 218 kts | 277° |
| 2026-05-05 20:02 | 48.75078 | 9.55920 | 4859 ft | 212 kts | 274° |
| 2026-05-05 20:02 | 48.74915 | 9.53742 | 4604 ft | 209 kts | 254° |
| 2026-05-05 20:03 | 48.74514 | 9.51618 | 4225 ft | 211 kts | 254° |
| 2026-05-05 20:03 | 48.74110 | 9.49466 | 3994 ft | 209 kts | 253° |
| 2026-05-05 20:03 | 48.73728 | 9.47423 | 3980 ft | 194 kts | 253° |
| 2026-05-05 20:03 | 48.73374 | 9.45526 | 3940 ft | 181 kts | 253° |
| 2026-05-05 20:04 | 48.73036 | 9.43717 | 3772 ft | 176 kts | 253° |
| 2026-05-05 20:04 | 48.72705 | 9.41950 | 3573 ft | 174 kts | 252° |
| 2026-05-05 20:04 | 48.72373 | 9.40180 | 3355 ft | 173 kts | 253° |
| 2026-05-05 20:04 | 48.72044 | 9.38423 | 3121 ft | 173 kts | 253° |
| 2026-05-05 20:05 | 48.71715 | 9.36671 | 2907 ft | 173 kts | 253° |
| 2026-05-05 20:05 | 48.71390 | 9.34942 | 2674 ft | 168 kts | 253° |
| 2026-05-05 20:05 | 48.71072 | 9.33249 | 2456 ft | 166 kts | 253° |
| 2026-05-05 20:05 | 48.70769 | 9.31639 | 2259 ft | 150 kts | 252° |
| 2026-05-05 20:06 | 48.70488 | 9.30151 | 2028 ft | 146 kts | 253° |
| 2026-05-05 20:06 | 48.70208 | 9.28681 | 1861 ft | 145 kts | 253° |
| 2026-05-05 20:06 | 48.69936 | 9.27214 | 1679 ft | 144 kts | 254° |
| 2026-05-05 20:06 | 48.69668 | 9.25757 | 1462 ft | 143 kts | 252° |
| 2026-05-05 20:07 | 48.69395 | 9.24334 | 1321 ft | 142 kts | 253° |
| 2026-05-05 20:07 | 48.69143 | 9.23007 | 1287 ft | 111 kts | 254° |
| 2026-05-05 20:07 | 48.68965 | 9.22073 | 1285 ft | 78 kts | 253° |
| 2026-05-05 20:07 | 48.68824 | 9.21332 | 1288 ft | 61 kts | 254° |
| 2026-05-05 20:08 | 48.68728 | 9.20825 | 1290 ft | 35 kts | 253° |
| 2026-05-05 20:08 | 48.68674 | 9.20518 | 1285 ft | 25 kts | 264° |
| 2026-05-05 20:08 | 48.68697 | 9.20252 | 1285 ft | 26 kts | 282° |
| 2026-05-05 20:08 | 48.68747 | 9.20011 | 1288 ft | 18 kts | 320° |
| 2026-05-05 20:09 | 48.68853 | 9.19891 | 1287 ft | 20 kts | 323° |
| 2026-05-05 20:09 | 48.68879 | 9.19769 | 1285 ft | 15 kts | 252° |
| 2026-05-05 20:09 | 48.68845 | 9.19610 | 1287 ft | 17 kts | 252° |
| 2026-05-05 20:09 | 48.68814 | 9.19425 | 1289 ft | 19 kts | 253° |
| 2026-05-05 20:10 | 48.68818 | 9.19389 | 1288 ft | 1 kts | 345° |
| 2026-05-05 20:10 | 48.68840 | 9.19379 | 1287 ft | 7 kts | 344° |
| 2026-05-05 20:10 | 48.68888 | 9.19358 | 1286 ft | 0 kts | 343° |
| 2026-05-05 20:10 | 48.68889 | 9.19358 | 1286 ft | 0 kts | 343° |
| 2026-05-05 20:13 | 48.68888 | 9.19358 | 1286 ft | 0 kts | 343° |